Time;durP1;ratioP1;P1;durP2;ratioP2;P2;SDS_P1;SDS_P2;PMS_P1;PMS_P2;Temp;Humidity;BMP_temperature;BMP_pressure;BME280_temperature;BME280_humidity;BME280_pressure;Samples;Min_cycle;Max_cycle;Signal;HPM_P1;HPM_P2
2021/07/28 00:00:03;;;;;;;21.55;11.38;;;16.10;99.90;;;;;;6305379;22;20008;-62
2021/07/28 00:02:28;;;;;;;22.70;10.93;;;16.10;99.90;;;;;;6304740;22;20100;-61
2021/07/28 00:04:54;;;;;;;18.50;12.02;;;16.10;99.90;;;;;;6305105;22;20003;-63
2021/07/28 00:07:19;;;;;;;23.83;10.77;;;16.10;99.90;;;;;;6304518;22;20078;-63
2021/07/28 00:09:45;;;;;;;18.85;10.02;;;16.10;99.90;;;;;;6304653;22;19999;-62
2021/07/28 00:12:10;;;;;;;20.55;10.52;;;16.10;99.90;;;;;;6305051;22;19999;-63
2021/07/28 00:14:36;;;;;;;20.25;11.20;;;16.00;99.90;;;;;;6303216;22;20339;-63
2021/07/28 00:17:02;;;;;;;14.98;10.57;;;16.00;99.90;;;;;;6302927;22;20140;-62
2021/07/28 00:19:33;;;;;;;18.98;11.38;;;16.00;99.90;;;;;;6303905;22;20421;-63
2021/07/28 00:24:42;;;;;;;23.10;11.95;;;16.00;99.90;;;;;;6304865;22;20346;-63
2021/07/28 00:27:08;;;;;;;22.80;10.55;;;16.10;99.90;;;;;;6304723;22;20070;-63
2021/07/28 00:29:40;;;;;;;23.90;12.05;;;16.00;99.90;;;;;;6304536;22;20031;-62
2021/07/28 00:32:05;;;;;;;20.05;10.43;;;16.10;99.90;;;;;;6304469;22;20334;-63
2021/07/28 00:34:31;;;;;;;21.67;11.57;;;16.10;99.90;;;;;;6304764;22;20070;-62
2021/07/28 00:36:56;;;;;;;24.38;11.57;;;16.00;99.90;;;;;;6303462;22;20060;-63
2021/07/28 00:39:22;;;;;;;24.45;11.50;;;16.00;99.90;;;;;;6305235;22;20082;-61
2021/07/28 00:41:47;;;;;;;20.50;10.95;;;15.90;99.90;;;;;;6304075;22;20080;-62
2021/07/28 00:44:13;;;;;;;20.38;11.38;;;15.90;99.90;;;;;;6304048;22;20829;-63
2021/07/28 00:46:39;;;;;;;23.92;11.90;;;15.90;99.90;;;;;;6303695;22;20007;-62
2021/07/28 00:49:05;;;;;;;15.73;11.57;;;15.90;99.90;;;;;;6304370;22;20006;-61
2021/07/28 00:51:31;;;;;;;22.42;11.68;;;15.90;99.90;;;;;;6305081;22;20014;-62
2021/07/28 00:53:57;;;;;;;19.50;11.60;;;16.00;99.90;;;;;;6304397;22;20003;-61
2021/07/28 00:56:25;;;;;;;24.27;12.88;;;16.00;99.90;;;;;;6304233;22;19999;-63
2021/07/28 00:58:50;;;;;;;19.33;12.23;;;16.00;99.90;;;;;;6303782;22;20003;-60
2021/07/28 01:01:16;;;;;;;20.35;12.10;;;16.10;99.90;;;;;;6304011;22;20506;-60
2021/07/28 01:03:42;;;;;;;24.65;12.73;;;16.10;99.90;;;;;;6304757;22;20006;-62
2021/07/28 01:06:11;;;;;;;18.48;12.13;;;16.10;99.90;;;;;;6304532;22;19999;-61
2021/07/28 01:08:37;;;;;;;22.73;12.63;;;16.20;99.90;;;;;;6304294;22;20006;-63
2021/07/28 01:11:04;;;;;;;24.30;14.32;;;16.20;99.90;;;;;;6304057;22;19995;-63
2021/07/28 01:13:32;;;;;;;26.38;13.18;;;16.20;99.90;;;;;;6304297;22;20596;-61
2021/07/28 01:16:14;;;;;;;22.45;13.02;;;16.10;99.90;;;;;;6303855;22;19999;-63
2021/07/28 01:18:41;;;;;;;23.13;13.27;;;16.10;99.90;;;;;;6303890;22;20007;-60
2021/07/28 01:21:09;;;;;;;24.73;12.90;;;16.20;99.90;;;;;;6304256;22;20058;-62
2021/07/28 01:23:36;;;;;;;19.85;13.25;;;16.30;99.90;;;;;;6304179;22;20494;-63
2021/07/28 01:26:04;;;;;;;24.40;13.90;;;16.20;99.90;;;;;;6303761;22;20438;-63
2021/07/28 01:28:31;;;;;;;32.05;13.82;;;16.20;99.90;;;;;;6304056;22;20056;-63
2021/07/28 01:31:01;;;;;;;21.45;13.43;;;16.20;99.90;;;;;;6303579;22;20070;-60
2021/07/28 01:33:29;;;;;;;21.30;14.13;;;16.20;99.90;;;;;;6304170;22;20003;-63
2021/07/28 01:35:56;;;;;;;27.05;14.40;;;16.20;99.90;;;;;;6304138;22;20001;-61
2021/07/28 01:38:25;;;;;;;24.30;14.40;;;16.30;99.90;;;;;;6303662;22;20010;-61
2021/07/28 01:40:53;;;;;;;26.75;14.25;;;16.30;99.90;;;;;;6304153;22;20347;-62
2021/07/28 01:43:18;;;;;;;19.42;13.35;;;16.30;99.90;;;;;;6304923;22;20008;-61
2021/07/28 01:45:44;;;;;;;23.13;14.27;;;16.30;99.90;;;;;;6303066;22;20324;-62
2021/07/28 01:48:09;;;;;;;20.85;14.02;;;16.40;99.90;;;;;;6303682;22;20010;-60
2021/07/28 01:50:36;;;;;;;27.35;14.90;;;16.30;99.90;;;;;;6304305;22;20007;-59
2021/07/28 01:53:03;;;;;;;26.55;15.13;;;16.30;99.90;;;;;;6303523;22;20482;-60
2021/07/28 01:55:29;;;;;;;24.50;14.10;;;16.30;99.90;;;;;;6303820;22;20125;-61
2021/07/28 01:57:54;;;;;;;26.65;15.00;;;16.30;99.90;;;;;;6303799;22;20031;-63
2021/07/28 02:00:21;;;;;;;22.40;15.07;;;16.40;99.90;;;;;;6304105;22;19999;-63
2021/07/28 02:02:46;;;;;;;23.13;15.18;;;16.30;99.90;;;;;;6304038;22;20000;-61
2021/07/28 02:05:13;;;;;;;28.58;15.23;;;16.30;99.90;;;;;;6303781;22;20427;-60
2021/07/28 02:07:38;;;;;;;23.27;14.85;;;16.30;99.90;;;;;;6304189;22;20430;-61
2021/07/28 02:10:04;;;;;;;27.27;14.95;;;16.30;99.90;;;;;;6303456;22;20035;-63
2021/07/28 02:12:30;;;;;;;27.63;16.27;;;16.40;99.90;;;;;;6303969;22;19996;-61
2021/07/28 02:14:55;;;;;;;32.53;15.85;;;16.40;99.90;;;;;;6303193;22;20006;-62
2021/07/28 02:17:21;;;;;;;42.80;17.13;;;16.30;99.90;;;;;;6302933;22;20002;-60
2021/07/28 02:19:47;;;;;;;30.70;16.23;;;16.40;99.90;;;;;;6303637;22;20052;-58
2021/07/28 02:22:12;;;;;;;25.55;15.73;;;16.40;99.90;;;;;;6304265;22;20425;-61
2021/07/28 02:24:39;;;;;;;28.60;16.50;;;16.40;99.90;;;;;;6303175;22;20074;-62
2021/07/28 02:27:05;;;;;;;27.45;16.38;;;16.40;99.90;;;;;;6303944;22;20339;-61
2021/07/28 02:29:31;;;;;;;26.50;15.85;;;16.40;99.90;;;;;;6303337;22;20014;-60
2021/07/28 02:31:57;;;;;;;25.60;16.23;;;16.50;99.90;;;;;;6303110;22;20002;-62
2021/07/28 02:34:23;;;;;;;23.55;15.07;;;16.50;99.90;;;;;;6304366;22;20022;-63
2021/07/28 02:36:49;;;;;;;27.38;15.07;;;16.60;99.90;;;;;;6303273;22;20416;-62
2021/07/28 02:39:14;;;;;;;27.88;15.20;;;16.50;99.90;;;;;;6303620;22;20010;-60
2021/07/28 02:41:40;;;;;;;23.92;14.45;;;16.60;99.90;;;;;;6303274;22;20003;-59
2021/07/28 02:44:05;;;;;;;24.95;14.57;;;16.60;99.90;;;;;;6303767;22;20037;-61
2021/07/28 02:46:31;;;;;;;32.95;16.15;;;16.60;99.90;;;;;;6303047;22;20010;-60
2021/07/28 02:48:56;;;;;;;26.38;15.50;;;16.60;99.90;;;;;;6303165;22;19999;-63
2021/07/28 02:51:22;;;;;;;30.45;14.55;;;16.60;99.90;;;;;;6302155;22;20011;-62
2021/07/28 02:53:48;;;;;;;25.85;14.45;;;16.50;99.90;;;;;;6303709;22;20003;-63
2021/07/28 02:56:13;;;;;;;24.45;14.20;;;16.60;99.90;;;;;;6303168;22;20088;-60
2021/07/28 02:58:39;;;;;;;25.52;15.02;;;16.60;99.90;;;;;;6303549;22;20003;-62
2021/07/28 03:01:04;;;;;;;26.73;14.48;;;16.60;99.90;;;;;;6303264;22;20003;-61
2021/07/28 03:03:30;;;;;;;28.50;15.38;;;16.60;99.90;;;;;;6303266;22;20007;-60
2021/07/28 03:05:55;;;;;;;25.75;15.55;;;16.60;99.90;;;;;;6303001;22;20070;-55
2021/07/28 03:08:22;;;;;;;23.00;15.60;;;16.50;99.90;;;;;;6304177;22;20048;-61
2021/07/28 03:10:47;;;;;;;24.27;16.23;;;16.50;99.90;;;;;;6305501;22;19995;-59
2021/07/28 03:13:13;;;;;;;21.75;14.13;;;16.50;99.90;;;;;;6305573;22;20828;-63
2021/07/28 03:15:38;;;;;;;32.17;16.40;;;16.50;99.90;;;;;;6305326;22;20002;-62
2021/07/28 03:18:04;;;;;;;22.73;15.90;;;16.40;99.90;;;;;;6305273;22;20389;-63
2021/07/28 03:20:29;;;;;;;28.90;16.73;;;16.40;99.90;;;;;;6305272;22;20010;-60
2021/07/28 03:22:55;;;;;;;27.42;15.07;;;16.30;99.90;;;;;;6305890;22;20022;-59
2021/07/28 03:25:21;;;;;;;27.67;16.52;;;16.30;99.90;;;;;;6304553;22;20021;-61
2021/07/28 03:27:46;;;;;;;28.45;15.82;;;16.20;99.90;;;;;;6304769;22;20607;-62
2021/07/28 03:30:12;;;;;;;33.65;16.80;;;16.20;99.90;;;;;;6305606;22;20068;-62
2021/07/28 03:32:38;;;;;;;25.63;15.73;;;16.20;99.90;;;;;;6305101;22;19996;-58
2021/07/28 03:35:04;;;;;;;31.70;17.45;;;16.10;99.90;;;;;;6305076;22;20003;-61
2021/07/28 03:37:29;;;;;;;27.63;16.55;;;16.10;99.90;;;;;;6304804;22;20074;-60
2021/07/28 03:40:02;;;;;;;30.02;17.80;;;16.10;99.90;;;;;;6305387;22;19995;-59
2021/07/28 03:42:32;;;;;;;27.20;16.63;;;16.00;99.90;;;;;;6305318;22;20007;-62
2021/07/28 03:44:59;;;;;;;25.45;16.25;;;16.00;99.90;;;;;;6304900;22;20034;-60
2021/07/28 03:47:25;;;;;;;29.95;18.00;;;15.90;99.90;;;;;;6305015;22;20008;-59
2021/07/28 03:49:51;;;;;;;22.75;16.63;;;15.90;99.90;;;;;;6303699;22;20007;-60
2021/07/28 03:52:17;;;;;;;30.20;18.45;;;15.90;99.90;;;;;;6304613;22;20074;-60
2021/07/28 03:54:45;;;;;;;29.27;16.88;;;15.90;99.90;;;;;;6305047;22;19999;-61
2021/07/28 03:57:12;;;;;;;37.72;18.80;;;15.90;99.90;;;;;;6304559;22;20010;-60
2021/07/28 03:59:39;;;;;;;31.27;16.30;;;15.90;99.90;;;;;;6304705;22;20003;-60
2021/07/28 04:02:05;;;;;;;35.47;18.13;;;15.90;99.90;;;;;;6304193;22;20034;-60
2021/07/28 04:04:30;;;;;;;30.67;16.70;;;15.90;99.90;;;;;;6305273;22;20003;-60
2021/07/28 04:06:56;;;;;;;31.98;16.45;;;15.90;99.90;;;;;;6305055;22;20000;-63
2021/07/28 04:09:21;;;;;;;32.35;17.50;;;15.90;99.90;;;;;;6303868;22;20035;-60
2021/07/28 04:11:47;;;;;;;26.88;16.05;;;15.90;99.90;;;;;;6305012;22;20023;-63
2021/07/28 04:14:12;;;;;;;26.98;17.13;;;15.90;99.90;;;;;;6304904;22;20639;-62
2021/07/28 04:16:38;;;;;;;30.45;16.00;;;15.90;99.90;;;;;;6304249;22;20003;-62
2021/07/28 04:19:03;;;;;;;29.20;17.45;;;15.90;99.90;;;;;;6304681;22;20013;-62
2021/07/28 04:21:30;;;;;;;32.80;17.70;;;16.00;99.90;;;;;;6304013;22;20014;-60
2021/07/28 04:23:55;;;;;;;27.00;17.63;;;16.00;99.90;;;;;;6304598;22;20007;-61
2021/07/28 04:26:21;;;;;;;28.33;18.27;;;16.10;99.90;;;;;;6304058;22;20552;-58
2021/07/28 04:28:47;;;;;;;34.60;16.92;;;16.10;99.90;;;;;;6304201;22;20004;-63
2021/07/28 04:31:12;;;;;;;28.60;17.73;;;16.20;99.90;;;;;;6304276;22;20003;-63
2021/07/28 04:33:38;;;;;;;28.85;17.02;;;16.20;99.90;;;;;;6304439;22;19996;-59
2021/07/28 04:36:04;;;;;;;29.38;17.23;;;16.30;99.90;;;;;;6304227;22;20006;-63
2021/07/28 04:38:29;;;;;;;28.20;16.60;;;16.30;99.90;;;;;;6304244;22;20004;-62
2021/07/28 04:40:55;;;;;;;26.67;15.23;;;16.40;99.90;;;;;;6304429;22;20393;-62
2021/07/28 04:43:20;;;;;;;29.25;15.57;;;16.50;99.90;;;;;;6304222;22;20078;-63
2021/07/28 04:45:46;;;;;;;22.63;14.07;;;16.50;99.90;;;;;;6303263;22;19999;-63
2021/07/28 04:48:12;;;;;;;22.60;14.38;;;16.60;99.90;;;;;;6303700;22;20083;-63
2021/07/28 04:50:37;;;;;;;27.45;14.98;;;16.60;99.90;;;;;;6305092;22;20011;-67
2021/07/28 04:53:03;;;;;;;24.48;14.07;;;16.70;99.90;;;;;;6303023;22;19999;-66
2021/07/28 04:55:29;;;;;;;23.65;15.20;;;16.70;99.90;;;;;;6304246;22;20006;-66
2021/07/28 04:57:56;;;;;;;23.73;13.10;;;16.70;99.90;;;;;;6303775;22;20408;-65
2021/07/28 05:00:21;;;;;;;17.98;12.48;;;16.80;99.90;;;;;;6304195;22;20052;-66
2021/07/28 05:02:47;;;;;;;21.13;12.63;;;16.90;99.90;;;;;;6304045;22;20293;-67
2021/07/28 05:05:12;;;;;;;26.50;13.25;;;16.90;99.90;;;;;;6276758;22;20003;-67
2021/07/28 05:07:38;;;;;;;23.05;12.88;;;16.90;99.90;;;;;;6303013;22;20084;-66
2021/07/28 05:10:04;;;;;;;27.42;14.27;;;16.90;99.90;;;;;;6298567;22;20446;-66
2021/07/28 05:12:29;;;;;;;21.13;13.63;;;17.00;99.90;;;;;;6303804;22;20381;-66
2021/07/28 05:14:55;;;;;;;19.08;12.70;;;17.00;99.90;;;;;;6303883;22;19999;-67
2021/07/28 05:17:23;;;;;;;23.90;13.05;;;17.00;99.90;;;;;;6304404;22;20002;-67
2021/07/28 05:19:49;;;;;;;19.08;12.02;;;17.10;99.90;;;;;;6304301;22;19999;-68
2021/07/28 05:22:14;;;;;;;19.90;13.43;;;17.10;99.90;;;;;;6304171;22;20010;-67
2021/07/28 05:24:40;;;;;;;19.15;12.90;;;17.10;99.90;;;;;;6303746;22;20154;-66
2021/07/28 05:27:06;;;;;;;18.73;11.57;;;17.10;99.90;;;;;;6304105;22;20087;-68
2021/07/28 05:29:32;;;;;;;17.85;11.50;;;17.10;99.90;;;;;;6304131;22;20537;-67
2021/07/28 05:31:57;;;;;;;19.50;11.43;;;17.10;99.90;;;;;;6303272;22;20000;-66
2021/07/28 05:34:23;;;;;;;16.23;10.90;;;17.10;99.90;;;;;;6303749;22;20010;-67
2021/07/28 05:36:49;;;;;;;26.38;11.38;;;17.20;99.90;;;;;;6303484;22;20078;-66
2021/07/28 05:39:14;;;;;;;19.30;11.75;;;17.20;99.90;;;;;;6303744;22;20052;-66
2021/07/28 05:41:40;;;;;;;25.55;12.23;;;17.20;99.90;;;;;;6303987;22;19999;-67
2021/07/28 05:44:08;;;;;;;21.50;12.50;;;17.20;99.90;;;;;;6304092;22;20026;-67
2021/07/28 05:46:35;;;;;;;15.57;10.73;;;17.20;99.90;;;;;;6303853;22;20335;-67
2021/07/28 05:49:01;;;;;;;17.92;11.43;;;17.20;99.90;;;;;;6304067;22;20003;-67
2021/07/28 05:51:27;;;;;;;25.45;12.38;;;17.20;99.90;;;;;;6304007;22;20014;-67
2021/07/28 05:53:52;;;;;;;20.23;11.18;;;17.30;99.90;;;;;;6304082;22;20071;-67
2021/07/28 05:56:18;;;;;;;20.08;11.88;;;17.30;99.90;;;;;;6302607;22;19995;-67
2021/07/28 05:58:44;;;;;;;19.02;12.23;;;17.30;99.90;;;;;;6303837;22;20006;-67
2021/07/28 06:01:09;;;;;;;21.33;11.05;;;17.40;99.90;;;;;;6303658;22;20004;-66
2021/07/28 06:03:35;;;;;;;20.52;10.70;;;17.50;99.90;;;;;;6304098;22;20003;-66
2021/07/28 06:06:00;;;;;;;20.50;12.63;;;17.60;99.90;;;;;;6303462;22;20025;-67
2021/07/28 06:08:26;;;;;;;19.83;10.88;;;17.70;99.90;;;;;;6304036;22;20465;-66
2021/07/28 06:10:52;;;;;;;19.48;9.95;;;17.80;99.90;;;;;;6304703;22;19998;-69
2021/07/28 06:13:17;;;;;;;18.00;11.27;;;17.90;99.90;;;;;;6302748;22;20030;-66
2021/07/28 06:15:46;;;;;;;19.38;10.75;;;18.00;99.90;;;;;;6302842;22;19996;-67
2021/07/28 06:18:11;;;;;;;20.67;11.82;;;18.10;99.90;;;;;;6304269;22;19999;-66
2021/07/28 06:20:37;;;;;;;19.05;11.35;;;18.10;99.90;;;;;;6276133;22;20006;-66
2021/07/28 06:23:03;;;;;;;21.98;10.82;;;18.20;99.90;;;;;;6302648;22;20017;-69
2021/07/28 06:25:28;;;;;;;20.52;11.65;;;18.20;99.90;;;;;;6302789;22;20095;-68
2021/07/28 06:27:54;;;;;;;21.40;11.25;;;18.30;99.90;;;;;;6302095;22;20061;-68
2021/07/28 06:30:19;;;;;;;14.70;10.23;;;18.40;99.90;;;;;;6302900;22;20014;-68
2021/07/28 06:32:45;;;;;;;14.82;9.50;;;18.40;99.90;;;;;;6302646;22;20382;-67
2021/07/28 06:35:11;;;;;;;18.27;10.27;;;18.50;99.90;;;;;;6303094;22;20086;-67
2021/07/28 06:37:37;;;;;;;19.35;10.60;;;18.60;99.90;;;;;;6302973;22;20002;-67
2021/07/28 06:40:03;;;;;;;18.20;9.20;;;18.60;99.90;;;;;;6303023;22;20003;-68
2021/07/28 06:42:28;;;;;;;17.45;9.15;;;18.70;99.90;;;;;;6301697;22;19999;-67
2021/07/28 06:44:54;;;;;;;16.73;9.07;;;18.80;99.90;;;;;;6302210;22;20072;-67
2021/07/28 06:47:19;;;;;;;15.15;9.27;;;18.90;99.90;;;;;;6302724;22;20030;-67
2021/07/28 06:49:45;;;;;;;19.77;9.85;;;18.90;99.90;;;;;;6303162;22;20003;-67
2021/07/28 06:52:10;;;;;;;19.88;9.20;;;18.90;99.90;;;;;;6302073;22;20022;-68
2021/07/28 06:54:36;;;;;;;18.67;8.77;;;19.00;99.90;;;;;;6303161;22;20004;-67
2021/07/28 06:57:02;;;;;;;13.98;8.77;;;19.00;99.90;;;;;;6274981;22;20027;-68
2021/07/28 06:59:28;;;;;;;17.75;9.35;;;19.00;99.90;;;;;;6302581;22;20026;-67
2021/07/28 07:01:53;;;;;;;16.48;9.57;;;19.10;99.90;;;;;;6302311;22;20320;-67
2021/07/28 07:04:19;;;;;;;13.88;7.55;;;19.10;99.90;;;;;;6275748;22;20347;-65
2021/07/28 07:06:44;;;;;;;22.27;9.20;;;19.30;99.90;;;;;;6300902;22;20105;-65
2021/07/28 07:09:10;;;;;;;14.82;8.80;;;19.30;99.90;;;;;;6275375;22;20007;-64
2021/07/28 07:11:35;;;;;;;12.63;7.93;;;19.40;99.90;;;;;;6302375;22;20409;-65
2021/07/28 07:14:01;;;;;;;17.85;7.88;;;19.40;99.90;;;;;;6303005;22;20324;-64
2021/07/28 07:16:27;;;;;;;11.85;7.38;;;19.50;99.90;;;;;;6302574;22;19999;-65
2021/07/28 07:18:52;;;;;;;13.15;8.00;;;19.50;99.90;;;;;;6302877;22;20457;-65
2021/07/28 07:21:18;;;;;;;16.58;8.82;;;19.60;99.90;;;;;;6302830;22;20003;-64
2021/07/28 07:23:43;;;;;;;15.45;8.32;;;19.60;99.90;;;;;;6302994;22;20454;-64
2021/07/28 07:26:09;;;;;;;23.13;10.23;;;19.60;99.90;;;;;;6302140;22;20347;-64
2021/07/28 07:28:35;;;;;;;15.27;9.13;;;19.50;99.90;;;;;;6301131;22;20004;-64
2021/07/28 07:31:01;;;;;;;14.93;9.20;;;19.60;99.90;;;;;;6301387;22;20006;-65
2021/07/28 07:36:15;;;;;;;15.00;9.40;;;19.60;99.90;;;;;;6312155;22;20023;-65
2021/07/28 07:38:41;;;;;;;16.42;9.40;;;19.50;99.90;;;;;;6302369;22;20005;-65
2021/07/28 07:41:06;;;;;;;14.20;7.78;;;19.60;99.90;;;;;;6302339;22;20086;-65
2021/07/28 07:43:33;;;;;;;15.75;8.65;;;19.50;99.90;;;;;;6301901;22;20007;-65
2021/07/28 07:45:59;;;;;;;15.75;9.05;;;19.50;99.90;;;;;;6299099;22;20056;-64
2021/07/28 07:48:25;;;;;;;14.98;9.10;;;19.60;99.90;;;;;;6301525;22;20782;-64
2021/07/28 07:50:51;;;;;;;22.73;9.10;;;19.70;99.90;;;;;;6302088;22;20003;-65
2021/07/28 07:53:17;;;;;;;15.77;9.43;;;19.80;99.90;;;;;;6302457;22;20381;-65
2021/07/28 07:55:43;;;;;;;23.10;9.43;;;19.90;99.90;;;;;;6303819;22;20003;-65
2021/07/28 07:58:08;;;;;;;16.58;9.63;;;20.00;99.90;;;;;;6303954;22;20445;-64
2021/07/28 08:00:34;;;;;;;18.63;9.85;;;20.00;99.90;;;;;;6304487;22;20026;-64
2021/07/28 08:03:00;;;;;;;18.00;9.60;;;20.10;99.90;;;;;;6304257;22;20007;-65
2021/07/28 08:05:25;;;;;;;14.35;8.10;;;20.30;99.90;;;;;;6303492;22;20482;-66
2021/07/28 08:07:51;;;;;;;13.55;8.10;;;20.30;99.90;;;;;;6303779;22;20456;-65
2021/07/28 08:10:16;;;;;;;14.48;8.13;;;20.20;99.90;;;;;;6302872;22;20014;-65
2021/07/28 08:12:42;;;;;;;18.13;9.02;;;20.00;99.90;;;;;;6303122;22;20045;-65
2021/07/28 08:15:08;;;;;;;17.52;8.50;;;19.90;99.90;;;;;;6303745;22;20002;-65
2021/07/28 08:17:34;;;;;;;16.38;8.73;;;20.00;99.90;;;;;;6302679;22;19995;-65
2021/07/28 08:20:01;;;;;;;19.17;9.13;;;20.00;99.90;;;;;;6303753;22;20117;-65
2021/07/28 08:22:27;;;;;;;25.77;10.38;;;20.10;99.90;;;;;;6304113;22;20006;-64
2021/07/28 08:24:52;;;;;;;17.50;8.38;;;20.20;99.90;;;;;;6303424;22;20011;-65
2021/07/28 08:27:18;;;;;;;12.27;8.18;;;20.30;99.90;;;;;;6304596;22;20113;-65
2021/07/28 08:29:44;;;;;;;11.48;7.70;;;20.30;99.90;;;;;;6303556;22;19999;-65
2021/07/28 08:32:09;;;;;;;19.38;9.40;;;20.20;99.90;;;;;;6304406;22;20007;-64
2021/07/28 08:34:35;;;;;;;15.30;7.25;;;20.20;99.90;;;;;;6303906;22;20486;-65
2021/07/28 08:37:01;;;;;;;10.85;8.52;;;20.20;99.90;;;;;;6303155;22;20006;-65
2021/07/28 08:39:26;;;;;;;15.98;8.13;;;20.20;99.90;;;;;;6303170;22;20008;-65
2021/07/28 08:41:53;;;;;;;12.48;7.65;;;20.20;99.90;;;;;;6303820;22;20010;-64
2021/07/28 08:44:21;;;;;;;14.57;7.75;;;20.10;99.90;;;;;;6303374;22;20060;-63
2021/07/28 08:46:50;;;;;;;9.93;5.70;;;20.20;99.90;;;;;;6303297;22;20014;-63
2021/07/28 08:49:17;;;;;;;10.57;5.40;;;20.30;99.90;;;;;;6302912;22;20003;-64
2021/07/28 08:51:43;;;;;;;10.98;5.53;;;20.40;99.90;;;;;;6302833;22;20330;-63
2021/07/28 08:54:10;;;;;;;11.85;6.10;;;20.50;99.90;;;;;;6304451;22;20003;-63
2021/07/28 08:56:40;;;;;;;8.50;5.53;;;20.50;99.90;;;;;;6303621;22;20006;-63
2021/07/28 08:59:23;;;;;;;7.28;4.18;;;20.70;99.90;;;;;;6302966;22;20371;-63
2021/07/28 09:01:49;;;;;;;6.95;4.47;;;20.90;99.90;;;;;;6303729;22;20027;-62
2021/07/28 09:04:14;;;;;;;6.88;4.00;;;21.30;99.90;;;;;;6302976;22;19999;-63
2021/07/28 09:06:40;;;;;;;10.07;4.18;;;21.50;99.90;;;;;;6302421;22;20423;-63
2021/07/28 09:09:06;;;;;;;8.32;3.85;;;21.40;99.90;;;;;;6303514;22;20006;-64
2021/07/28 09:11:31;;;;;;;12.63;4.97;;;21.30;99.90;;;;;;6302850;22;20025;-64
2021/07/28 09:14:16;;;;;;;8.20;4.47;;;21.20;99.90;;;;;;6303240;22;20423;-63
2021/07/28 09:16:42;;;;;;;8.52;4.55;;;21.10;99.90;;;;;;6301275;22;20320;-63
2021/07/28 09:19:07;;;;;;;11.00;5.00;;;21.00;99.90;;;;;;6302385;22;20045;-63
2021/07/28 09:21:33;;;;;;;7.75;3.97;;;21.00;99.90;;;;;;6303405;22;20000;-63
2021/07/28 09:24:11;;;;;;;9.38;4.35;;;21.10;99.90;;;;;;6303299;22;20005;-64
2021/07/28 09:26:44;;;;;;;8.32;3.90;;;21.30;99.90;;;;;;6275596;22;20086;-63
2021/07/28 09:29:11;;;;;;;6.05;3.65;;;21.50;99.90;;;;;;6302844;22;20003;-63
2021/07/28 09:31:41;;;;;;;7.97;3.38;;;21.60;99.90;;;;;;6275728;22;20026;-64
2021/07/28 09:34:22;;;;;;;7.07;3.30;;;21.80;99.90;;;;;;6303717;22;19995;-63
2021/07/28 09:36:49;;;;;;;5.80;2.88;;;21.90;99.90;;;;;;6303172;22;20082;-63
2021/07/28 09:39:36;;;;;;;10.05;4.03;;;22.10;99.90;;;;;;6303622;22;20342;-63
2021/07/28 09:42:15;;;;;;;7.78;3.80;;;22.20;99.90;;;;;;6302661;22;20003;-64
2021/07/28 09:44:44;;;;;;;5.40;3.15;;;22.30;99.90;;;;;;6303480;22;20458;-63
2021/07/28 09:47:37;;;;;;;4.63;3.42;;;22.30;99.90;;;;;;6301825;22;20010;-63
2021/07/28 09:50:02;;;;;;;5.45;3.15;;;22.10;99.90;;;;;;6301494;22;20007;-63
2021/07/28 09:52:33;;;;;;;8.15;3.05;;;21.90;99.90;;;;;;6302776;22;20577;-62
2021/07/28 09:55:21;;;;;;;5.93;3.22;;;21.70;99.90;;;;;;6303899;22;20439;-63
2021/07/28 09:57:52;;;;;;;4.75;3.30;;;21.60;99.90;;;;;;6280308;22;20007;-63
2021/07/28 10:00:19;;;;;;;12.38;3.20;;;21.70;99.90;;;;;;6302800;22;20339;-62
2021/07/28 10:02:46;;;;;;;6.65;3.28;;;21.70;99.90;;;;;;6275902;22;20435;-63
2021/07/28 10:05:12;;;;;;;4.57;3.08;;;21.80;99.90;;;;;;6302976;22;20039;-63
2021/07/28 10:07:39;;;;;;;9.52;2.88;;;21.80;99.90;;;;;;6302126;22;20339;-63
2021/07/28 10:10:09;;;;;;;6.40;3.33;;;21.80;99.90;;;;;;6303754;22;20007;-63
2021/07/28 10:12:36;;;;;;;5.97;2.60;;;21.70;99.90;;;;;;6303684;22;20003;-63
2021/07/28 10:15:04;;;;;;;4.38;2.58;;;21.70;99.90;;;;;;6302753;22;20044;-63
2021/07/28 10:17:31;;;;;;;9.27;3.47;;;21.70;99.90;;;;;;6303101;22;20006;-63
2021/07/28 10:19:59;;;;;;;6.10;3.00;;;21.90;99.90;;;;;;6303534;22;20458;-64
2021/07/28 10:22:24;;;;;;;4.38;2.75;;;22.00;99.90;;;;;;6276071;22;20007;-64
2021/07/28 10:24:51;;;;;;;13.20;3.40;;;22.00;99.90;;;;;;6302807;22;20415;-64
2021/07/28 10:27:17;;;;;;;4.30;2.92;;;21.80;99.90;;;;;;6302677;22;19999;-64
2021/07/28 10:29:43;;;;;;;5.53;2.70;;;21.80;99.90;;;;;;6302876;22;20010;-64
2021/07/28 10:32:30;;;;;;;6.75;3.17;;;21.70;99.90;;;;;;6302925;22;20437;-64
2021/07/28 10:35:22;;;;;;;8.50;3.40;;;21.70;99.90;;;;;;6302075;22;19996;-64
2021/07/28 10:37:55;;;;;;;7.60;3.25;;;21.70;99.90;;;;;;6303675;22;20022;-64
2021/07/28 10:40:23;;;;;;;7.47;3.40;;;22.30;99.90;;;;;;6302955;22;20003;-65
2021/07/28 10:42:49;;;;;;;5.93;3.60;;;22.90;99.90;;;;;;6302813;22;20061;-64
2021/07/28 10:45:17;;;;;;;5.50;3.28;;;23.30;99.90;;;;;;6302534;22;20331;-63
2021/07/28 10:47:48;;;;;;;6.38;3.42;;;23.50;99.90;;;;;;6302223;22;20007;-64
2021/07/28 10:50:22;;;;;;;5.72;3.05;;;23.60;99.90;;;;;;6301567;22;20308;-64
2021/07/28 10:53:08;;;;;;;7.47;3.15;;;23.40;99.90;;;;;;6302428;22;20481;-63
2021/07/28 10:55:37;;;;;;;3.78;2.97;;;23.50;99.90;;;;;;6301657;22;20030;-65
2021/07/28 10:58:06;;;;;;;4.28;2.10;;;23.30;99.90;;;;;;6303542;22;19999;-64
2021/07/28 11:00:38;;;;;;;3.97;2.22;;;23.00;99.90;;;;;;6302590;22;20015;-64
2021/07/28 11:03:06;;;;;;;3.83;2.45;;;22.90;99.90;;;;;;6303098;22;20331;-63
2021/07/28 11:05:43;;;;;;;9.75;3.28;;;22.90;99.90;;;;;;6302625;22;19999;-63
2021/07/28 11:08:12;;;;;;;4.32;3.03;;;23.20;99.90;;;;;;6302808;22;20090;-64
2021/07/28 11:10:38;;;;;;;4.80;2.10;;;23.60;99.90;;;;;;6302417;22;20011;-64
2021/07/28 11:13:08;;;;;;;3.47;2.40;;;24.00;99.90;;;;;;6303137;22;20072;-64
2021/07/28 11:15:35;;;;;;;8.45;2.45;;;24.50;99.90;;;;;;6301638;22;20100;-65
2021/07/28 11:18:01;;;;;;;6.03;2.60;;;24.60;99.90;;;;;;6274484;22;19999;-64
2021/07/28 11:20:31;;;;;;;6.90;2.75;;;24.50;99.90;;;;;;6275329;22;20053;-64
2021/07/28 11:23:23;;;;;;;3.38;2.30;;;24.10;99.90;;;;;;6303203;22;20043;-64
2021/07/28 11:25:48;;;;;;;3.30;2.30;;;23.80;99.90;;;;;;6303092;22;20007;-63
2021/07/28 11:28:17;;;;;;;4.47;2.33;;;23.50;99.90;;;;;;6303153;22;20034;-63
2021/07/28 11:30:43;;;;;;;4.35;2.50;;;23.40;99.90;;;;;;6304145;22;19999;-63
2021/07/28 11:33:13;;;;;;;4.82;2.33;;;23.40;99.90;;;;;;6304995;22;20428;-63
2021/07/28 11:35:41;;;;;;;7.07;2.53;;;23.50;99.90;;;;;;6304154;22;19999;-65
2021/07/28 11:38:14;;;;;;;2.83;2.10;;;23.50;99.90;;;;;;6277072;22;20405;-64
2021/07/28 11:40:54;;;;;;;3.95;1.83;;;23.40;99.90;;;;;;6305059;22;20771;-65
2021/07/28 11:43:26;;;;;;;8.02;1.85;;;23.50;99.90;;;;;;6305107;22;20027;-66
2021/07/28 11:45:53;;;;;;;2.20;1.58;;;23.60;99.90;;;;;;6303930;22;20004;-65
2021/07/28 11:48:40;;;;;;;4.57;2.17;;;23.60;99.90;;;;;;6304864;22;20000;-65
2021/07/28 11:51:09;;;;;;;5.28;2.45;;;23.60;99.90;;;;;;6303573;22;19999;-64
2021/07/28 11:53:37;;;;;;;3.55;1.92;;;23.70;99.90;;;;;;6304285;22;19999;-64
2021/07/28 11:56:13;;;;;;;4.95;1.95;;;23.90;99.90;;;;;;6304354;22;20343;-64
2021/07/28 11:58:43;;;;;;;4.85;2.30;;;23.80;99.90;;;;;;6304974;22;20053;-64
2021/07/28 12:01:30;;;;;;;3.40;2.03;;;23.80;99.90;;;;;;6304166;22;19999;-65
2021/07/28 12:04:02;;;;;;;3.88;2.20;;;23.70;99.90;;;;;;6276641;22;20011;-63
2021/07/28 12:06:35;;;;;;;5.38;2.13;;;23.50;99.90;;;;;;6304014;22;20680;-64
2021/07/28 12:09:21;;;;;;;3.58;2.22;;;23.30;99.90;;;;;;6304183;22;20086;-65
2021/07/28 12:11:51;;;;;;;6.18;2.70;;;23.20;99.90;;;;;;6303930;22;19999;-65
2021/07/28 12:14:24;;;;;;;2.75;2.30;;;23.20;99.90;;;;;;6304919;22;20582;-64
2021/07/28 12:16:50;;;;;;;3.92;2.30;;;23.30;99.90;;;;;;6303517;22;20075;-65
2021/07/28 12:19:23;;;;;;;4.07;2.10;;;23.40;99.90;;;;;;6304287;22;20347;-64
2021/07/28 12:22:00;;;;;;;7.80;2.55;;;23.60;99.90;;;;;;6304135;22;20331;-64
2021/07/28 12:24:34;;;;;;;6.18;2.70;;;23.60;99.90;;;;;;6303549;22;20013;-65
2021/07/28 12:27:25;;;;;;;6.15;2.85;;;23.60;99.90;;;;;;6303690;22;20026;-63
2021/07/28 12:30:01;;;;;;;3.58;2.13;;;23.60;99.90;;;;;;6303641;22;20101;-66
2021/07/28 12:32:43;;;;;;;6.32;2.78;;;23.40;99.90;;;;;;6303316;22;20078;-65
2021/07/28 12:35:14;;;;;;;2.85;1.80;;;23.50;99.90;;;;;;6303341;22;20018;-66
2021/07/28 12:37:40;;;;;;;3.58;2.50;;;23.40;99.90;;;;;;6304282;22;20004;-63
2021/07/28 12:40:07;;;;;;;3.10;1.90;;;23.60;99.90;;;;;;6303660;22;20007;-64